createdAt,value
2022-11-04T00:02:18.303Z,3.15
2022-11-04T00:04:45.197Z,3.40
2022-11-04T00:07:30.372Z,3.30
2022-11-04T00:09:57.216Z,2.53
2022-11-04T00:12:26.706Z,3.10
2022-11-04T00:14:54.189Z,3.13
2022-11-04T00:17:22.710Z,2.95
2022-11-04T00:20:13.097Z,2.58
2022-11-04T00:23:00.709Z,2.83
2022-11-04T00:25:46.201Z,2.13
2022-11-04T00:28:33.945Z,2.80
2022-11-04T00:31:22.262Z,2.25
2022-11-04T00:33:50.860Z,2.40
2022-11-04T00:36:18.136Z,2.30
2022-11-04T00:38:45.440Z,2.25
2022-11-04T00:41:27.913Z,2.42
2022-11-04T00:44:01.058Z,2.20
2022-11-04T00:46:29.950Z,2.28
2022-11-04T00:48:56.917Z,2.65
2022-11-04T00:51:24.253Z,2.70
2022-11-04T00:53:51.609Z,2.40
2022-11-04T00:56:18.565Z,2.70
2022-11-04T00:58:45.622Z,2.50
2022-11-04T01:01:18.270Z,2.70
2022-11-04T01:03:47.117Z,2.40
2022-11-04T01:06:13.997Z,2.83
2022-11-04T01:08:41.177Z,2.88
2022-11-04T01:11:09.376Z,3.53
2022-11-04T01:13:38.383Z,3.05
2022-11-04T01:16:07.788Z,3.33
2022-11-04T01:18:35.475Z,3.05
2022-11-04T01:21:07.734Z,2.72
2022-11-04T01:23:35.291Z,3.20
2022-11-04T01:26:06.340Z,3.17
2022-11-04T01:28:33.284Z,3.40
2022-11-04T01:31:00.254Z,3.13
2022-11-04T01:33:27.054Z,2.92
2022-11-04T01:35:53.985Z,3.50
2022-11-04T01:38:20.816Z,2.67
2022-11-04T01:40:47.593Z,3.58
2022-11-04T01:43:20.498Z,3.13
2022-11-04T01:46:00.111Z,2.83
2022-11-04T01:48:33.994Z,3.20
2022-11-04T01:51:00.925Z,3.00
2022-11-04T01:53:32.799Z,2.83
2022-11-04T01:56:02.582Z,2.90
2022-11-04T01:58:34.541Z,3.58
2022-11-04T02:01:02.663Z,3.13
2022-11-04T02:03:34.719Z,3.35
2022-11-04T02:06:02.872Z,3.17
2022-11-04T02:08:30.073Z,3.25
2022-11-04T02:10:59.733Z,2.80
2022-11-04T02:13:32.561Z,3.80
2022-11-04T02:16:18.291Z,3.45
2022-11-04T02:19:06.034Z,3.92
2022-11-04T02:21:45.352Z,3.20
2022-11-04T02:24:42.956Z,3.13
2022-11-04T02:27:18.392Z,3.53
2022-11-04T02:32:37.982Z,3.00
2022-11-04T02:35:05.070Z,3.15
2022-11-04T02:37:37.738Z,3.25
2022-11-04T02:40:27.703Z,3.47
2022-11-04T02:43:03.618Z,3.63
2022-11-04T02:45:47.128Z,3.22
2022-11-04T02:48:24.905Z,3.78
2022-11-04T02:51:19.845Z,3.58
2022-11-04T02:53:55.872Z,3.50
2022-11-04T02:56:24.347Z,3.50
2022-11-04T02:58:58.731Z,3.47
2022-11-04T03:01:32.059Z,4.30
2022-11-04T03:04:11.577Z,4.35
2022-11-04T03:06:39.433Z,4.07
2022-11-04T03:09:08.286Z,4.20
2022-11-04T03:11:36.227Z,5.00
2022-11-04T03:14:13.456Z,5.03
2022-11-04T03:16:46.696Z,5.22
2022-11-04T03:19:40.819Z,4.00
2022-11-04T03:22:15.082Z,5.15
2022-11-04T03:24:45.967Z,4.93
2022-11-04T03:27:27.306Z,5.40
2022-11-04T03:30:04.382Z,4.53
2022-11-04T03:32:47.133Z,4.47
2022-11-04T03:35:16.376Z,4.43
2022-11-04T03:37:44.867Z,5.35
2022-11-04T03:40:13.347Z,5.03
2022-11-04T03:42:53.521Z,5.05
2022-11-04T03:45:20.370Z,5.10
2022-11-04T03:47:47.366Z,5.65
2022-11-04T03:50:25.963Z,5.22
2022-11-04T03:52:53.050Z,4.97
2022-11-04T03:55:19.885Z,5.18
2022-11-04T03:57:56.920Z,5.43
2022-11-04T04:00:25.705Z,5.05
2022-11-04T04:02:59.420Z,5.53
2022-11-04T04:05:28.367Z,5.80
2022-11-04T04:08:05.806Z,5.00
2022-11-04T04:10:42.635Z,4.93
2022-11-04T04:13:34.407Z,5.07
2022-11-04T04:16:03.330Z,5.57
2022-11-04T04:18:42.053Z,4.70
2022-11-04T04:21:13.829Z,4.88
2022-11-04T04:24:00.810Z,4.68
2022-11-04T04:26:48.672Z,4.43
2022-11-04T04:29:17.664Z,4.38
2022-11-04T04:31:50.168Z,4.53
2022-11-04T04:34:28.900Z,4.72
2022-11-04T04:37:21.023Z,4.03
2022-11-04T04:40:22.198Z,4.15
2022-11-04T04:43:11.459Z,4.65
2022-11-04T04:45:42.323Z,3.97
2022-11-04T04:48:12.225Z,3.67
2022-11-04T04:50:44.054Z,3.65
2022-11-04T04:53:11.889Z,4.13
2022-11-04T04:55:40.805Z,4.20
2022-11-04T04:58:09.614Z,4.25
2022-11-04T05:00:36.416Z,4.07
2022-11-04T05:03:03.391Z,4.35
2022-11-04T05:05:30.311Z,3.95
2022-11-04T05:08:05.711Z,3.92
2022-11-04T05:10:32.914Z,4.05
2022-11-04T05:13:19.608Z,4.68
2022-11-04T05:15:46.465Z,4.28
2022-11-04T05:18:13.292Z,4.35
2022-11-04T05:20:40.369Z,3.95
2022-11-04T05:23:08.290Z,4.35
2022-11-04T05:25:35.208Z,4.10
2022-11-04T05:28:02.880Z,3.70
2022-11-04T05:30:29.921Z,4.30
2022-11-04T05:33:00.025Z,4.05
2022-11-04T05:35:31.097Z,4.57
2022-11-04T05:37:57.895Z,4.10
2022-11-04T05:40:25.342Z,3.78
2022-11-04T05:42:52.240Z,5.25
2022-11-04T05:45:19.212Z,4.25
2022-11-04T05:47:46.019Z,4.15
2022-11-04T05:50:12.902Z,4.20
2022-11-04T05:52:39.704Z,4.82
2022-11-04T05:55:06.979Z,4.47
2022-11-04T05:57:43.785Z,4.35
2022-11-04T06:00:12.210Z,4.82
2022-11-04T06:02:39.067Z,4.43
2022-11-04T06:05:06.589Z,4.50
2022-11-04T06:07:33.326Z,4.85
2022-11-04T06:10:00.474Z,5.03
2022-11-04T06:12:27.253Z,4.78
2022-11-04T06:14:54.094Z,4.55
2022-11-04T06:17:22.407Z,4.70
2022-11-04T06:19:49.492Z,5.53
2022-11-04T06:22:18.503Z,5.28
2022-11-04T06:24:45.795Z,5.53
2022-11-04T06:27:12.928Z,4.47
2022-11-04T06:29:41.185Z,5.45
2022-11-04T06:32:17.152Z,5.88
2022-11-04T06:34:44.642Z,5.85
2022-11-04T06:37:11.441Z,5.68
2022-11-04T06:39:38.334Z,6.07
2022-11-04T06:42:05.682Z,5.93
2022-11-04T06:44:34.440Z,5.75
2022-11-04T06:47:01.888Z,5.32
2022-11-04T06:49:28.807Z,6.28
2022-11-04T06:51:55.625Z,6.50
2022-11-04T06:54:22.661Z,6.57
2022-11-04T06:56:49.617Z,6.13
2022-11-04T06:59:18.857Z,6.93
2022-11-04T07:01:46.560Z,6.60
2022-11-04T07:04:13.924Z,5.97
2022-11-04T07:06:44.825Z,6.40
2022-11-04T07:09:15.856Z,6.60
2022-11-04T07:11:44.515Z,6.80
2022-11-04T07:14:11.806Z,6.18
2022-11-04T07:16:38.802Z,6.90
2022-11-04T07:19:06.220Z,6.93
2022-11-04T07:21:33.148Z,6.88
2022-11-04T07:24:01.651Z,6.40
2022-11-04T07:26:28.576Z,6.22
2022-11-04T07:28:55.401Z,6.32
2022-11-04T07:31:22.389Z,6.63
2022-11-04T07:33:51.290Z,6.70
2022-11-04T07:36:19.117Z,6.32
2022-11-04T07:38:46.793Z,6.90
2022-11-04T07:41:14.130Z,6.57
2022-11-04T07:43:40.903Z,6.05
2022-11-04T07:46:12.996Z,6.43
2022-11-04T07:48:40.065Z,6.32
2022-11-04T07:51:09.079Z,6.03
2022-11-04T07:54:00.336Z,6.70
2022-11-04T07:56:27.537Z,5.97
2022-11-04T07:58:54.484Z,6.30
2022-11-04T08:01:23.481Z,6.47
2022-11-04T08:03:51.678Z,6.15
2022-11-04T08:06:20.586Z,6.95
2022-11-04T08:08:48.420Z,6.68
2022-11-04T08:11:18.752Z,6.88
2022-11-04T08:13:47.032Z,7.50
2022-11-04T08:16:15.942Z,7.40
2022-11-04T08:18:43.866Z,7.22
2022-11-04T08:21:11.354Z,7.13
2022-11-04T08:23:38.694Z,7.45
2022-11-04T08:26:13.895Z,7.82
2022-11-04T08:28:41.038Z,8.27
2022-11-04T08:31:11.229Z,8.65
2022-11-04T08:33:38.205Z,8.20
2022-11-04T08:36:18.563Z,7.32
2022-11-04T08:39:03.287Z,7.90
2022-11-04T08:41:32.982Z,6.82
2022-11-04T08:44:00.984Z,6.63
2022-11-04T08:46:29.928Z,7.47
2022-11-04T08:48:56.761Z,6.72
2022-11-04T08:51:26.489Z,6.78
2022-11-04T08:53:53.613Z,6.20
2022-11-04T08:56:24.521Z,5.47
2022-11-04T08:58:51.713Z,5.28
2022-11-04T09:01:19.489Z,6.00
2022-11-04T09:03:47.366Z,5.15
2022-11-04T09:06:19.495Z,5.10
2022-11-04T09:08:47.059Z,3.30
2022-11-04T09:11:15.689Z,3.10
2022-11-04T09:13:43.275Z,3.10
2022-11-04T09:16:12.756Z,2.65
2022-11-04T09:18:40.054Z,2.83
2022-11-04T09:21:08.514Z,2.97
2022-11-04T09:23:35.917Z,2.53
2022-11-04T09:26:12.924Z,2.38
2022-11-04T09:28:40.710Z,2.25
2022-11-04T09:31:13.538Z,2.13
2022-11-04T09:33:40.730Z,1.70
2022-11-04T09:36:09.127Z,1.70
2022-11-04T09:38:41.123Z,1.73
2022-11-04T09:42:02.581Z,1.80
2022-11-04T09:45:19.396Z,1.33
2022-11-04T09:47:38.453Z,0.68
2022-11-04T09:50:11.410Z,0.60
2022-11-04T09:52:44.458Z,1.08
2022-11-04T09:55:31.397Z,0.30
2022-11-04T09:57:59.014Z,0.30
2022-11-04T10:00:26.293Z,0.57
2022-11-04T10:03:19.321Z,0.60
2022-11-04T10:06:10.370Z,0.60
2022-11-04T10:09:06.190Z,0.70
2022-11-04T10:12:05.473Z,0.80
2022-11-04T10:14:58.712Z,0.60
2022-11-04T10:17:46.933Z,0.70
2022-11-04T10:20:46.768Z,1.08
2022-11-04T10:23:38.292Z,0.70
2022-11-04T10:26:19.438Z,0.82
2022-11-04T10:28:58.412Z,0.63
2022-11-04T10:31:25.512Z,0.68
2022-11-04T10:33:56.289Z,1.40
2022-11-04T10:36:24.612Z,0.70
2022-11-04T10:38:55.167Z,0.70
2022-11-04T10:41:30.095Z,0.60
2022-11-04T10:44:02.616Z,0.40
2022-11-04T10:46:39.770Z,0.70
2022-11-04T10:50:00.024Z,0.60
2022-11-04T10:52:34.777Z,0.90
2022-11-04T10:55:01.675Z,0.77
2022-11-04T10:57:30.928Z,1.50
2022-11-04T11:00:03.476Z,0.80
2022-11-04T11:02:37.568Z,1.02
2022-11-04T11:05:24.927Z,0.93
2022-11-04T11:07:54.968Z,1.00
2022-11-04T11:10:23.663Z,1.23
2022-11-04T11:13:23.382Z,1.00
2022-11-04T11:16:06.086Z,1.23
2022-11-04T11:18:33.058Z,0.82
2022-11-04T11:21:10.184Z,0.80
2022-11-04T11:23:42.873Z,0.90
2022-11-04T11:26:18.153Z,1.08
2022-11-04T11:28:59.238Z,1.10
2022-11-04T11:31:34.648Z,0.77
2022-11-04T11:34:05.931Z,0.73
2022-11-04T11:36:38.773Z,1.20
2022-11-04T11:39:16.995Z,1.00
2022-11-04T11:42:06.983Z,1.00
2022-11-04T11:44:50.279Z,1.00
2022-11-04T11:47:23.275Z,1.00
2022-11-04T11:50:05.051Z,0.63
2022-11-04T11:52:39.739Z,0.90
2022-11-04T11:55:12.378Z,0.80
2022-11-04T12:01:02.073Z,1.05
2022-11-04T12:10:54.600Z,1.35
2022-11-04T12:13:32.396Z,1.52
2022-11-04T12:16:13.001Z,0.95
2022-11-04T12:18:45.685Z,1.17
2022-11-04T12:21:37.350Z,1.38
2022-11-04T12:24:28.756Z,2.22
2022-11-04T12:27:20.178Z,1.23
2022-11-04T12:30:11.595Z,1.00
2022-11-04T12:32:52.778Z,1.42
2022-11-04T12:35:42.140Z,1.33
2022-11-04T12:38:11.735Z,1.50
2022-11-04T12:41:18.090Z,1.17
2022-11-04T12:43:49.588Z,0.90
2022-11-04T12:46:23.131Z,1.10
2022-11-04T12:48:59.047Z,1.63
2022-11-04T12:51:57.274Z,0.90
2022-11-04T12:54:53.794Z,1.33
2022-11-04T13:00:16.840Z,1.20
2022-11-04T13:03:09.575Z,1.02
2022-11-04T13:06:02.386Z,1.27
2022-11-04T13:08:42.778Z,0.77
2022-11-04T13:11:25.925Z,1.42
2022-11-04T13:14:02.571Z,1.50
2022-11-04T13:16:34.231Z,1.40
2022-11-04T13:19:01.969Z,1.65
2022-11-04T13:21:35.547Z,1.60
2022-11-04T13:24:17.637Z,1.70
2022-11-04T13:26:44.662Z,1.40
2022-11-04T13:29:17.443Z,1.80
2022-11-04T13:32:05.624Z,1.70
2022-11-04T13:34:37.816Z,2.20
2022-11-04T13:37:19.742Z,1.70
2022-11-04T13:40:17.977Z,1.90
2022-11-04T13:42:53.883Z,1.70
2022-11-04T13:45:21.102Z,2.03
2022-11-04T13:47:55.180Z,1.65
2022-11-04T13:50:41.001Z,2.20
2022-11-04T13:53:11.592Z,1.95
2022-11-04T13:55:49.694Z,2.00
2022-11-04T13:58:27.189Z,1.77
2022-11-04T14:01:26.591Z,2.10
2022-11-04T14:04:02.884Z,1.83
2022-11-04T14:06:54.903Z,2.35
2022-11-04T14:09:35.598Z,1.50
2022-11-04T14:12:14.441Z,1.45
2022-11-04T14:14:48.765Z,1.80
2022-11-04T14:17:33.912Z,1.60
2022-11-04T14:20:26.468Z,1.60
2022-11-04T14:23:04.806Z,1.73
2022-11-04T14:25:38.885Z,1.50
2022-11-04T14:28:15.008Z,1.42
2022-11-04T14:30:57.589Z,1.73
2022-11-04T14:33:36.197Z,1.75
2022-11-04T14:36:21.324Z,1.88
2022-11-04T14:39:09.934Z,1.90
2022-11-04T14:41:39.718Z,1.40
2022-11-04T14:44:33.093Z,2.05
2022-11-04T14:47:22.878Z,1.52
2022-11-04T14:49:52.564Z,1.98
2022-11-04T14:52:38.630Z,1.60
2022-11-04T14:55:11.248Z,2.13
2022-11-04T14:57:47.219Z,1.98
2022-11-04T15:00:23.555Z,1.60
2022-11-04T15:04:09.690Z,1.73
2022-11-04T15:06:34.512Z,2.00
2022-11-04T15:09:23.649Z,1.52
2022-11-04T15:12:10.383Z,2.08
2022-11-04T15:14:37.693Z,1.88
2022-11-04T15:17:04.702Z,1.90
2022-11-04T15:19:34.418Z,1.48
2022-11-04T15:22:04.315Z,2.17
2022-11-04T15:24:31.627Z,2.63
2022-11-04T15:27:03.211Z,2.00
2022-11-04T15:29:30.202Z,1.70
2022-11-04T15:32:05.474Z,2.28
2022-11-04T15:37:05.794Z,1.88
2022-11-04T15:39:37.572Z,2.53
2022-11-04T15:42:26.430Z,2.05
2022-11-04T15:44:56.981Z,2.15
2022-11-04T15:47:31.165Z,1.90
2022-11-04T15:50:23.255Z,2.00
2022-11-04T15:52:56.375Z,1.85
2022-11-04T15:55:26.630Z,2.58
2022-11-04T15:57:54.898Z,2.20
2022-11-04T16:00:28.474Z,1.85
2022-11-04T16:03:00.035Z,1.70
2022-11-04T16:05:30.114Z,2.28
2022-11-04T16:08:21.244Z,2.45
2022-11-04T16:10:48.497Z,2.28
2022-11-04T16:13:18.045Z,2.47
2022-11-04T16:16:09.319Z,2.83
2022-11-04T16:18:45.342Z,2.33
2022-11-04T16:21:34.323Z,2.28
2022-11-04T16:24:06.082Z,2.58
2022-11-04T16:26:41.794Z,2.70
2022-11-04T16:29:22.694Z,3.10
2022-11-04T16:32:18.891Z,2.53
2022-11-04T16:34:48.688Z,2.40
2022-11-04T16:37:15.813Z,2.67
2022-11-04T16:39:45.002Z,2.03
2022-11-04T16:42:16.436Z,1.90
2022-11-04T16:44:53.947Z,1.67
2022-11-04T16:47:21.091Z,1.52
2022-11-04T16:49:47.946Z,1.45
2022-11-04T16:52:25.517Z,2.03
2022-11-04T16:54:56.155Z,1.65
2022-11-04T16:57:25.340Z,1.98
2022-11-04T16:59:52.273Z,2.53
2022-11-04T17:02:23.102Z,2.03
2022-11-04T17:04:50.066Z,2.70
2022-11-04T17:07:17.023Z,2.42
2022-11-04T17:09:43.996Z,13.32
2022-11-04T17:12:10.911Z,4.60
2022-11-04T17:14:38.264Z,3.60
2022-11-04T17:17:06.009Z,3.10
2022-11-04T17:19:34.770Z,2.38
2022-11-04T17:22:05.235Z,2.20
2022-11-04T17:24:32.754Z,2.75
2022-11-04T17:26:59.841Z,2.13
2022-11-04T17:29:26.853Z,3.30
2022-11-04T17:31:53.931Z,3.03
2022-11-04T17:34:23.872Z,2.47
2022-11-04T17:36:50.655Z,2.65
2022-11-04T17:39:17.493Z,3.33
2022-11-04T17:42:02.856Z,5.65
2022-11-04T17:44:29.710Z,2.80
2022-11-04T17:46:57.812Z,2.85
2022-11-04T17:49:26.144Z,3.67
2022-11-04T17:51:58.185Z,3.50
2022-11-04T17:54:28.160Z,2.50
2022-11-04T17:56:55.907Z,4.40
2022-11-04T17:59:23.228Z,3.22
2022-11-04T18:01:50.535Z,3.20
2022-11-04T18:04:22.542Z,2.55
2022-11-04T18:06:50.685Z,2.20
2022-11-04T18:09:18.639Z,2.45
2022-11-04T18:12:06.159Z,2.58
2022-11-04T18:14:33.198Z,2.33
2022-11-04T18:17:00.387Z,2.47
2022-11-04T18:19:27.744Z,2.70
2022-11-04T18:21:54.686Z,1.80
2022-11-04T18:24:24.094Z,2.13
2022-11-04T18:26:51.331Z,2.35
2022-11-04T18:29:18.577Z,2.15
2022-11-04T18:31:49.286Z,2.30
2022-11-04T18:34:19.456Z,2.47
2022-11-04T18:36:47.765Z,2.33
2022-11-04T18:39:17.426Z,2.10
2022-11-04T18:41:45.674Z,1.77
2022-11-04T18:44:19.081Z,1.98
2022-11-04T18:46:47.571Z,2.05
2022-11-04T18:49:15.607Z,2.15
2022-11-04T18:51:44.250Z,2.47
2022-11-04T18:54:12.101Z,2.03
2022-11-04T18:56:39.261Z,1.60
2022-11-04T18:59:09.380Z,2.03
2022-11-04T19:01:36.559Z,1.60
2022-11-04T19:04:04.062Z,1.80
2022-11-04T19:06:34.503Z,1.70
2022-11-04T19:09:13.285Z,2.25
2022-11-04T19:12:11.689Z,1.65
2022-11-04T19:14:38.779Z,1.75
2022-11-04T19:17:05.533Z,1.85
2022-11-04T19:19:32.386Z,1.67
2022-11-04T19:21:59.302Z,1.58
2022-11-04T19:24:26.208Z,1.80
2022-11-04T19:26:53.004Z,1.73
2022-11-04T19:29:19.962Z,2.20
2022-11-04T19:31:46.741Z,1.58
2022-11-04T19:34:13.607Z,1.63
2022-11-04T19:36:40.384Z,1.30
2022-11-04T19:39:07.280Z,1.73
2022-11-04T19:41:52.528Z,1.55
2022-11-04T19:44:20.688Z,1.13
2022-11-04T19:46:49.119Z,1.92
2022-11-04T19:49:17.080Z,1.63
2022-11-04T19:51:44.512Z,1.80
2022-11-04T19:54:13.133Z,1.60
2022-11-04T19:56:40.560Z,1.75
2022-11-04T19:59:09.252Z,1.60
2022-11-04T20:01:36.674Z,1.80
2022-11-04T20:04:04.645Z,1.70
2022-11-04T20:06:35.773Z,1.90
2022-11-04T20:09:05.569Z,1.60
2022-11-04T20:11:56.416Z,1.98
2022-11-04T20:14:24.688Z,1.55
2022-11-04T20:16:51.847Z,1.85
2022-11-04T20:19:22.601Z,1.80
2022-11-04T20:21:50.667Z,1.80
2022-11-04T20:24:17.452Z,2.00
2022-11-04T20:26:44.447Z,2.25
2022-11-04T20:29:11.920Z,2.03
2022-11-04T20:31:39.670Z,1.88
2022-11-04T20:34:08.155Z,1.50
2022-11-04T20:36:36.053Z,1.80
2022-11-04T20:39:20.225Z,1.77
2022-11-04T20:41:47.646Z,2.28
2022-11-04T20:44:15.540Z,1.65
2022-11-04T20:46:43.069Z,1.60
2022-11-04T20:49:10.823Z,2.10
2022-11-04T20:51:54.835Z,1.23
2022-11-04T20:54:22.762Z,1.90
2022-11-04T20:56:49.528Z,2.45
2022-11-04T20:59:18.234Z,1.90
2022-11-04T21:01:46.698Z,1.88
2022-11-04T21:04:19.964Z,1.92
2022-11-04T21:06:49.008Z,2.25
2022-11-04T21:09:17.535Z,1.98
2022-11-04T21:11:44.845Z,2.08
2022-11-04T21:14:13.827Z,1.92
2022-11-04T21:16:40.865Z,1.75
2022-11-04T21:19:08.141Z,1.50
2022-11-04T21:21:35.343Z,1.60
2022-11-04T21:24:05.678Z,1.98
2022-11-04T21:26:35.083Z,1.52
2022-11-04T21:29:05.459Z,2.05
2022-11-04T21:31:33.475Z,1.95
2022-11-04T21:34:00.726Z,1.73
2022-11-04T21:36:28.017Z,2.13
2022-11-04T21:38:54.840Z,1.70
2022-11-04T21:41:25.917Z,1.40
2022-11-04T21:43:57.865Z,1.77
2022-11-04T21:46:25.908Z,2.03
2022-11-04T21:48:52.849Z,1.70
2022-11-04T21:51:22.891Z,2.13
2022-11-04T21:53:49.957Z,1.75
2022-11-04T21:56:23.281Z,1.70
2022-11-04T21:58:51.794Z,1.30
2022-11-04T22:01:21.544Z,2.05
2022-11-04T22:03:54.580Z,1.60
2022-11-04T22:06:22.191Z,1.67
2022-11-04T22:08:54.297Z,1.67
2022-11-04T22:11:24.742Z,2.00
2022-11-04T22:14:00.033Z,1.63
2022-11-04T22:16:30.167Z,1.73
2022-11-04T22:18:59.832Z,1.50
2022-11-04T22:21:28.175Z,1.98
2022-11-04T22:23:55.924Z,2.03
2022-11-04T22:26:28.722Z,2.15
2022-11-04T22:28:56.744Z,1.67
2022-11-04T22:31:24.828Z,2.03
2022-11-04T22:33:52.321Z,1.77
2022-11-04T22:36:19.615Z,1.83
2022-11-04T22:38:46.975Z,1.48
2022-11-04T22:41:22.191Z,1.63
2022-11-04T22:43:49.263Z,1.95
2022-11-04T22:46:19.873Z,1.70
2022-11-04T22:48:46.920Z,1.85
2022-11-04T22:51:14.144Z,1.80
2022-11-04T22:53:41.576Z,1.45
2022-11-04T22:56:11.140Z,1.83
2022-11-04T22:58:38.309Z,1.38
2022-11-04T23:01:11.987Z,1.10
2022-11-04T23:03:39.544Z,1.35
2022-11-04T23:06:07.719Z,0.93
2022-11-04T23:08:36.268Z,1.00
2022-11-04T23:11:28.189Z,0.80
2022-11-04T23:14:20.826Z,1.13
2022-11-04T23:17:08.630Z,1.27
2022-11-04T23:19:36.611Z,1.05
2022-11-04T23:22:22.062Z,1.10
2022-11-04T23:25:06.974Z,1.73
2022-11-04T23:27:54.067Z,1.53
2022-11-04T23:30:21.632Z,1.67
2022-11-04T23:32:59.564Z,1.60
2022-11-04T23:35:46.595Z,1.55
2022-11-04T23:38:13.730Z,1.42
2022-11-04T23:40:40.904Z,1.17
2022-11-04T23:43:08.436Z,1.50
2022-11-04T23:45:53.875Z,1.42
2022-11-04T23:48:39.309Z,1.30
2022-11-04T23:51:24.560Z,1.08
2022-11-04T23:54:09.859Z,1.50
2022-11-04T23:56:55.434Z,1.08
2022-11-04T23:59:40.754Z,1.20
